createdAt,value
2018-08-06T00:00:31.486Z,83.96
2018-08-06T00:01:31.483Z,84.44
2018-08-06T00:02:31.485Z,84.16
2018-08-06T00:03:31.513Z,83.58
2018-08-06T00:04:31.491Z,83.58
2018-08-06T00:05:31.481Z,83.77
2018-08-06T00:06:31.486Z,84.16
2018-08-06T00:07:31.507Z,84.74
2018-08-06T00:08:31.529Z,84.35
2018-08-06T00:09:31.496Z,84.44
2018-08-06T00:10:31.491Z,85.02
2018-08-06T00:11:31.497Z,85.22
2018-08-06T00:12:31.480Z,84.93
2018-08-06T00:13:31.483Z,85.12
2018-08-06T00:14:31.481Z,84.74
2018-08-06T00:15:31.484Z,85.31
2018-08-06T00:16:31.487Z,84.16
2018-08-06T00:17:31.478Z,84.93
2018-08-06T00:18:31.469Z,84.83
2018-08-06T00:19:31.477Z,84.44
2018-08-06T00:20:31.481Z,85.12
2018-08-06T00:21:31.480Z,84.74
2018-08-06T00:22:31.494Z,84.35
2018-08-06T00:23:31.525Z,83.67
2018-08-06T00:24:31.476Z,83.96
2018-08-06T00:25:31.482Z,84.44
2018-08-06T00:26:31.476Z,84.06
2018-08-06T00:27:31.527Z,83.87
2018-08-06T00:28:31.477Z,83.58
2018-08-06T00:29:31.534Z,83.58
2018-08-06T00:30:31.497Z,83.77
2018-08-06T00:31:31.471Z,83.77
2018-08-06T00:32:31.485Z,84.35
2018-08-06T00:33:31.475Z,84.31
2018-08-06T00:34:31.479Z,84.69
2018-08-06T00:35:31.476Z,84.31
2018-08-06T00:36:31.488Z,83.63
2018-08-06T00:37:31.480Z,83.39
2018-08-06T00:38:31.482Z,84.06
2018-08-06T00:39:31.480Z,83.19
2018-08-06T00:40:31.513Z,83.96
2018-08-06T00:41:31.481Z,83.83
2018-08-06T00:42:31.476Z,84.11
2018-08-06T00:43:31.475Z,83.83
2018-08-06T00:44:31.475Z,84.41
2018-08-06T00:45:31.486Z,84.79
2018-08-06T00:46:31.478Z,84.98
2018-08-06T00:47:31.475Z,84.31
2018-08-06T00:48:31.483Z,84.98
2018-08-06T00:49:31.474Z,84.21
2018-08-06T00:50:31.472Z,84.50
2018-08-06T00:51:31.466Z,83.44
2018-08-06T00:52:31.470Z,83.53
2018-08-06T00:53:31.471Z,84.50
2018-08-06T00:54:31.479Z,84.21
2018-08-06T00:55:31.477Z,84.98
2018-08-06T00:56:31.495Z,84.69
2018-08-06T00:57:31.467Z,85.46
2018-08-06T00:58:31.472Z,84.98
2018-08-06T00:59:31.484Z,84.98
2018-08-06T01:00:31.463Z,85.23
2018-08-06T01:01:31.477Z,85.23
2018-08-06T01:02:31.494Z,85.61
2018-08-06T01:03:31.469Z,85.17
2018-08-06T01:04:31.484Z,84.98
2018-08-06T01:05:31.493Z,85.17
2018-08-06T01:06:31.475Z,84.98
2018-08-06T01:07:31.481Z,85.08
2018-08-06T01:08:31.520Z,84.50
2018-08-06T01:09:31.472Z,84.21
2018-08-06T01:10:31.464Z,84.69
2018-08-06T01:11:31.462Z,85.03
2018-08-06T01:12:31.507Z,85.71
2018-08-06T01:13:31.463Z,85.52
2018-08-06T01:14:31.469Z,85.52
2018-08-06T01:15:31.464Z,85.03
2018-08-06T01:16:31.463Z,84.94
2018-08-06T01:17:31.454Z,85.03
2018-08-06T01:18:31.465Z,84.46
2018-08-06T01:19:31.490Z,84.79
2018-08-06T01:20:31.527Z,85.13
2018-08-06T01:21:31.468Z,84.94
2018-08-06T01:22:31.479Z,84.27
2018-08-06T01:23:31.506Z,85.03
2018-08-06T01:24:31.460Z,85.03
2018-08-06T01:25:31.459Z,84.94
2018-08-06T01:26:31.459Z,84.55
2018-08-06T01:27:31.460Z,85.13
2018-08-06T01:28:31.481Z,84.94
2018-08-06T01:29:31.459Z,84.84
2018-08-06T01:30:31.451Z,85.33
2018-08-06T02:04:47.780Z,85.33
2018-08-06T02:05:47.756Z,84.65
2018-08-06T02:07:40.667Z,85.47
2018-08-06T02:08:40.650Z,85.47
2018-08-06T02:10:33.574Z,85.38
2018-08-06T02:11:34.508Z,85.47
2018-08-06T02:13:26.457Z,85.96
2018-08-06T02:14:26.431Z,86.05
2018-08-06T02:16:19.348Z,86.05
2018-08-06T02:17:19.346Z,86.05
2018-08-06T02:19:12.251Z,86.15
2018-08-06T02:20:12.230Z,86.15
2018-08-06T02:22:05.133Z,86.63
2018-08-06T02:23:05.120Z,86.54
2018-08-06T02:24:58.071Z,87.21
2018-08-06T02:25:58.056Z,87.21
2018-08-06T02:27:50.999Z,87.88
2018-08-06T02:28:50.985Z,88.13
2018-08-06T02:30:43.897Z,88.23
2018-08-06T02:31:43.877Z,87.94
2018-08-06T02:33:36.834Z,88.61
2018-08-06T02:34:36.817Z,89.09
2018-08-06T02:36:29.740Z,89.09
2018-08-06T02:37:29.728Z,89.19
2018-08-06T02:39:22.670Z,90.16
2018-08-06T02:40:22.654Z,89.96
2018-08-06T02:42:15.567Z,90.30
2018-08-06T02:43:15.550Z,90.40
2018-08-06T02:45:08.456Z,90.20
2018-08-06T02:46:08.439Z,90.78
2018-08-06T02:48:01.376Z,90.69
2018-08-06T02:49:01.367Z,90.59
2018-08-06T02:50:54.269Z,90.69
2018-08-06T02:51:54.252Z,90.78
2018-08-06T02:53:47.324Z,91.46
2018-08-06T02:54:47.305Z,90.88
2018-08-06T02:56:40.213Z,90.88
2018-08-06T02:57:40.196Z,90.88
2018-08-06T02:59:33.163Z,91.36
2018-08-06T03:00:33.168Z,91.94
2018-08-06T03:02:26.049Z,91.75
2018-08-06T03:03:26.025Z,91.65
2018-08-06T03:05:18.984Z,92.57
2018-08-06T03:06:18.961Z,92.47
2018-08-06T03:08:11.869Z,92.57
2018-08-06T03:09:11.861Z,93.24
2018-08-06T03:11:04.770Z,92.95
2018-08-06T03:12:04.757Z,93.91
2018-08-06T03:13:57.656Z,93.53
2018-08-06T03:14:57.654Z,93.91
2018-08-06T03:16:50.613Z,92.76
2018-08-06T03:17:50.543Z,93.82
2018-08-06T03:19:43.467Z,92.95
2018-08-06T03:20:43.489Z,93.33
2018-08-06T03:22:36.382Z,92.57
2018-08-06T03:23:36.365Z,93.05
2018-08-06T03:25:29.316Z,92.47
2018-08-06T03:26:29.298Z,92.57
2018-08-06T03:28:22.222Z,92.57
2018-08-06T03:29:22.208Z,92.85
2018-08-06T03:31:15.172Z,92.85
2018-08-06T03:32:15.152Z,92.57
2018-08-06T03:34:08.071Z,92.57
2018-08-06T03:35:08.062Z,92.57
2018-08-06T03:37:01.003Z,93.33
2018-08-06T03:38:00.983Z,93.33
2018-08-06T03:39:53.902Z,93.24
2018-08-06T03:40:53.882Z,93.33
2018-08-06T03:42:46.780Z,93.72
2018-08-06T03:43:46.783Z,93.33
2018-08-06T03:45:39.685Z,93.72
2018-08-06T03:46:39.671Z,93.72
2018-08-06T03:48:32.624Z,94.01
2018-08-06T03:49:32.616Z,93.77
2018-08-06T03:51:25.518Z,94.01
2018-08-06T03:52:25.515Z,93.91
2018-08-06T03:54:18.404Z,93.77
2018-08-06T03:55:18.393Z,93.77
2018-08-06T03:57:11.297Z,93.72
2018-08-06T03:58:11.285Z,93.91
2018-08-06T04:00:04.229Z,94.49
2018-08-06T04:01:04.176Z,94.35
2018-08-06T04:02:57.129Z,94.54
2018-08-06T04:03:57.117Z,94.83
2018-08-06T04:05:50.058Z,94.92
2018-08-06T04:06:50.037Z,95.12
2018-08-06T04:08:42.952Z,94.54
2018-08-06T04:09:42.941Z,95.31
2018-08-06T04:11:35.857Z,94.15
2018-08-06T04:12:35.857Z,94.64
2018-08-06T04:14:28.757Z,95.21
2018-08-06T04:15:28.744Z,95.31
2018-08-06T04:17:21.654Z,95.12
2018-08-06T04:18:21.633Z,95.12
2018-08-06T04:20:14.562Z,95.70
2018-08-06T04:21:14.546Z,95.21
2018-08-06T04:23:07.466Z,94.92
2018-08-06T04:24:07.433Z,95.31
2018-08-06T04:26:00.351Z,95.31
2018-08-06T04:27:00.333Z,95.21
2018-08-06T04:28:53.259Z,94.97
2018-08-06T04:29:53.233Z,95.65
2018-08-06T04:31:46.159Z,95.40
2018-08-06T04:32:46.181Z,95.79
2018-08-06T04:34:39.050Z,95.40
2018-08-06T04:35:39.047Z,95.79
2018-08-06T04:37:31.981Z,95.79
2018-08-06T04:38:31.995Z,95.98
2018-08-06T04:40:24.872Z,96.08
2018-08-06T04:41:24.852Z,95.98
2018-08-06T04:43:17.773Z,96.17
2018-08-06T04:44:17.755Z,95.79
2018-08-06T04:46:10.669Z,95.74
2018-08-06T04:47:10.642Z,96.12
2018-08-06T04:49:03.557Z,96.03
2018-08-06T04:50:03.550Z,95.65
2018-08-06T04:51:56.465Z,95.74
2018-08-06T04:52:56.444Z,95.84
2018-08-06T04:54:49.384Z,95.36
2018-08-06T04:55:49.379Z,95.26
2018-08-06T04:57:42.316Z,95.26
2018-08-06T04:58:42.292Z,94.87
2018-08-06T05:00:35.381Z,95.36
2018-08-06T05:01:35.373Z,94.49
2018-08-06T05:02:35.370Z,95.40
2018-08-06T05:03:35.520Z,95.21
2018-08-06T05:04:35.369Z,94.64
2018-08-06T05:05:35.365Z,94.73
2018-08-06T05:06:35.366Z,95.31
2018-08-06T05:07:35.537Z,95.02
2018-08-06T05:08:35.367Z,94.54
2018-08-06T05:09:35.558Z,95.12
2018-08-06T05:10:35.357Z,94.73
2018-08-06T05:11:35.369Z,94.15
2018-08-06T05:12:35.363Z,94.54
2018-08-06T05:13:35.395Z,94.78
2018-08-06T05:14:35.365Z,94.39
2018-08-06T05:15:35.365Z,94.68
2018-08-06T05:16:35.383Z,94.49
2018-08-06T05:17:35.447Z,94.39
2018-08-06T05:18:35.364Z,94.01
2018-08-06T05:19:35.368Z,93.91
2018-08-06T05:20:36.243Z,94.44
2018-08-06T05:21:35.364Z,93.96
2018-08-06T05:22:35.375Z,93.57
2018-08-06T05:23:35.364Z,93.38
2018-08-06T05:24:35.381Z,93.38
2018-08-06T05:25:35.374Z,93.38
2018-08-06T05:26:35.371Z,93.48
2018-08-06T05:27:35.502Z,93.48
2018-08-06T05:28:35.363Z,93.09
2018-08-06T05:29:35.501Z,93.09
2018-08-06T05:30:35.491Z,93.38
2018-08-06T05:31:35.387Z,93.28
2018-08-06T05:32:35.365Z,93.48
2018-08-06T05:33:35.365Z,92.71
2018-08-06T05:34:35.363Z,93.04
2018-08-06T05:35:35.377Z,93.62
2018-08-06T05:36:35.387Z,92.56
2018-08-06T05:37:35.569Z,92.85
2018-08-06T05:38:35.374Z,93.04
2018-08-06T05:39:35.388Z,92.85
2018-08-06T05:40:35.376Z,92.08
2018-08-06T05:41:35.393Z,91.83
2018-08-06T05:42:35.373Z,92.60
2018-08-06T05:43:35.383Z,91.93
2018-08-06T05:44:35.394Z,92.70
2018-08-06T05:45:35.382Z,91.93
2018-08-06T05:46:35.387Z,91.64
2018-08-06T05:47:35.400Z,91.83
2018-08-06T05:48:35.388Z,91.83
2018-08-06T05:49:35.387Z,92.12
2018-08-06T05:50:35.391Z,91.93
2018-08-06T05:51:35.391Z,92.22
2018-08-06T05:52:35.393Z,92.12
2018-08-06T05:53:35.397Z,91.74
2018-08-06T05:54:35.390Z,92.70
2018-08-06T05:55:35.398Z,91.93
2018-08-06T05:56:35.398Z,93.28
2018-08-06T05:57:35.442Z,93.08
2018-08-06T05:58:35.410Z,92.16
2018-08-06T05:59:35.504Z,91.88
2018-08-06T06:00:35.411Z,91.39
2018-08-06T06:01:35.406Z,91.88
2018-08-06T06:02:35.421Z,92.16
2018-08-06T06:03:35.426Z,91.11
2018-08-06T06:04:35.415Z,91.01
2018-08-06T06:05:35.442Z,92.07
2018-08-06T06:06:35.428Z,92.07
2018-08-06T06:07:35.541Z,91.11
2018-08-06T06:08:35.429Z,90.81
2018-08-06T06:09:35.511Z,91.49
2018-08-06T06:10:35.427Z,90.81
2018-08-06T06:11:35.425Z,91.11
2018-08-06T06:12:35.457Z,90.23
2018-08-06T06:13:35.434Z,91.01
2018-08-06T06:14:35.441Z,90.47
2018-08-06T06:15:35.449Z,90.67
2018-08-06T06:16:35.444Z,89.22
2018-08-06T06:17:35.448Z,88.54
2018-08-06T06:18:35.434Z,88.64
2018-08-06T06:19:35.440Z,88.97
2018-08-06T06:20:35.441Z,88.73
2018-08-06T06:21:35.447Z,88.93
2018-08-06T06:22:35.448Z,88.39
2018-08-06T06:23:35.468Z,88.97
2018-08-06T06:24:35.460Z,88.97
2018-08-06T06:25:35.465Z,88.59
2018-08-06T06:26:35.472Z,88.15
2018-08-06T06:27:35.676Z,87.95
2018-08-06T06:28:35.497Z,86.21
2018-08-06T06:29:35.692Z,86.60
2018-08-06T06:30:35.492Z,86.45
2018-08-06T06:31:35.489Z,85.68
2018-08-06T06:32:35.498Z,86.06
2018-08-06T06:33:35.497Z,85.42
2018-08-06T06:34:35.589Z,85.62
2018-08-06T06:35:35.508Z,86.30
2018-08-06T06:36:35.497Z,84.01
2018-08-06T06:37:35.532Z,82.72
2018-08-06T06:38:35.528Z,84.17
2018-08-06T06:39:35.511Z,84.90
2018-08-06T06:40:35.518Z,85.73
2018-08-06T06:41:35.537Z,86.41
2018-08-06T06:42:35.520Z,86.69
2018-08-06T06:43:35.531Z,86.02
2018-08-06T06:44:35.545Z,86.25
2018-08-06T06:45:35.536Z,85.87
2018-08-06T06:46:35.542Z,85.77
2018-08-06T06:47:35.536Z,85.77
2018-08-06T06:48:35.546Z,86.02
2018-08-06T06:49:35.549Z,86.69
2018-08-06T06:50:35.554Z,86.99
2018-08-06T06:51:35.554Z,86.65
2018-08-06T06:52:35.560Z,85.87
2018-08-06T06:53:35.566Z,86.10
2018-08-06T06:54:35.646Z,86.20
2018-08-06T06:55:35.636Z,85.62
2018-08-06T06:56:35.680Z,84.84
2018-08-06T06:57:35.669Z,85.24
2018-08-06T06:58:35.592Z,84.99
2018-08-06T06:59:35.622Z,84.89
2018-08-06T07:00:35.593Z,84.41
2018-08-06T07:01:35.692Z,83.30
2018-08-06T07:02:35.602Z,84.56
2018-08-06T07:03:35.605Z,84.89
2018-08-06T07:04:35.614Z,85.14
2018-08-06T07:05:35.621Z,84.36
2018-08-06T07:06:35.616Z,84.01
2018-08-06T07:07:35.733Z,83.73
2018-08-06T07:08:35.626Z,83.67
2018-08-06T07:09:35.743Z,83.15
2018-08-06T07:10:35.633Z,82.80
2018-08-06T07:11:35.640Z,82.26
2018-08-06T07:12:35.665Z,81.04
2018-08-06T07:13:35.654Z,79.55
2018-08-06T07:14:35.656Z,81.87
2018-08-06T07:15:35.669Z,81.23
2018-08-06T07:16:35.670Z,80.26
2018-08-06T07:17:35.792Z,79.78
2018-08-06T07:18:35.681Z,80.85
2018-08-06T07:19:35.672Z,80.07
2018-08-06T07:20:35.671Z,79.43
2018-08-06T07:21:35.671Z,77.98
2018-08-06T07:22:35.686Z,77.04
2018-08-06T07:23:35.706Z,76.46
2018-08-06T07:24:35.697Z,75.59
2018-08-06T07:25:35.695Z,76.46
2018-08-06T07:26:35.708Z,78.21
2018-08-06T07:27:36.106Z,76.52
2018-08-06T07:28:35.724Z,76.78
2018-08-06T07:29:35.876Z,78.36
2018-08-06T07:30:35.737Z,76.65
2018-08-06T07:31:35.746Z,75.01
2018-08-06T07:32:35.756Z,75.53
2018-08-06T07:33:35.767Z,73.33
2018-08-06T07:34:35.774Z,74.24
2018-08-06T07:35:35.771Z,72.94
2018-08-06T07:36:35.776Z,73.56
2018-08-06T07:37:35.859Z,72.72
2018-08-06T07:38:35.807Z,71.33
2018-08-06T07:39:35.820Z,67.67
2018-08-06T07:40:35.825Z,67.02
2018-08-06T07:41:35.844Z,66.08
2018-08-06T07:42:35.848Z,66.47
2018-08-06T07:43:35.948Z,68.80
2018-08-06T07:44:35.954Z,70.55
2018-08-06T07:45:35.917Z,72.98
2018-08-06T07:46:35.969Z,73.15
2018-08-06T07:47:35.898Z,70.07
2018-08-06T07:48:35.902Z,69.48
2018-08-06T07:49:35.947Z,69.74
2018-08-06T07:50:35.952Z,70.65
2018-08-06T07:51:35.946Z,68.48
2018-08-06T07:52:35.983Z,66.76
2018-08-06T07:53:35.988Z,68.90
2018-08-06T07:54:35.981Z,68.26
2018-08-06T07:55:35.994Z,69.26
2018-08-06T07:56:35.998Z,68.55
2018-08-06T07:57:36.060Z,69.13
2018-08-06T07:58:36.068Z,71.50
2018-08-06T07:59:36.046Z,70.36
2018-08-06T08:00:36.058Z,69.39
2018-08-06T08:01:36.072Z,69.52
2018-08-06T08:02:36.083Z,69.91
2018-08-06T08:03:36.103Z,68.29
2018-08-06T08:04:36.106Z,67.93
2018-08-06T08:05:36.124Z,68.13
2018-08-06T08:06:36.137Z,69.94
2018-08-06T08:07:36.198Z,69.62
2018-08-06T08:08:36.170Z,69.00
2018-08-06T08:09:36.267Z,68.16
2018-08-06T08:10:36.188Z,66.14
2018-08-06T08:11:36.206Z,68.32
2018-08-06T08:12:36.217Z,68.58
2018-08-06T08:13:36.226Z,68.29
2018-08-06T08:14:36.243Z,68.80
2018-08-06T08:15:36.257Z,69.46
2018-08-06T08:16:36.267Z,67.99
2018-08-06T08:17:36.280Z,67.74
2018-08-06T08:18:36.299Z,67.28
2018-08-06T08:19:36.362Z,66.05
2018-08-06T08:20:36.322Z,67.02
2018-08-06T08:21:36.336Z,66.86
2018-08-06T08:22:36.352Z,65.59
2018-08-06T08:23:36.370Z,66.70
2018-08-06T08:24:36.383Z,65.39
2018-08-06T08:25:36.431Z,64.51
2018-08-06T08:26:36.420Z,65.75
2018-08-06T08:27:36.418Z,65.07
2018-08-06T08:28:36.437Z,64.61
2018-08-06T08:29:36.472Z,62.95
2018-08-06T08:30:36.459Z,63.90
2018-08-06T08:31:36.470Z,64.29
2018-08-06T08:32:36.498Z,65.26
2018-08-06T08:33:36.509Z,66.17
2018-08-06T08:34:36.528Z,67.41
2018-08-06T08:35:36.548Z,67.86
2018-08-06T08:36:36.551Z,67.93
2018-08-06T08:37:36.577Z,68.52
2018-08-06T08:38:36.580Z,68.80
2018-08-06T08:39:36.629Z,69.62
2018-08-06T08:40:36.628Z,68.87
2018-08-06T08:41:36.622Z,69.49
2018-08-06T08:42:36.641Z,68.16
2018-08-06T08:43:36.648Z,67.22
2018-08-06T08:44:36.668Z,67.74
2018-08-06T08:45:36.731Z,68.52
2018-08-06T08:46:36.699Z,68.84
2018-08-06T08:47:36.698Z,68.39
2018-08-06T08:48:36.714Z,65.20
2018-08-06T08:49:36.741Z,66.21
2018-08-06T08:50:36.741Z,64.97
2018-08-06T08:51:36.752Z,62.92
2018-08-06T08:52:36.766Z,62.95
2018-08-06T08:53:36.822Z,62.22
2018-08-06T08:54:36.797Z,60.99
2018-08-06T08:55:36.824Z,61.05
2018-08-06T08:56:36.840Z,61.18
2018-08-06T08:57:36.841Z,61.15
2018-08-06T08:58:36.886Z,60.83
2018-08-06T08:59:36.868Z,61.18
2018-08-06T09:00:36.880Z,60.93
2018-08-06T09:01:36.897Z,59.69
2018-08-06T09:02:37.012Z,61.99
2018-08-06T09:03:36.952Z,59.48
2018-08-06T09:04:36.948Z,59.70
2018-08-06T09:05:36.962Z,57.00
2018-08-06T09:06:36.981Z,59.21
2018-08-06T09:07:36.993Z,57.93
2018-08-06T09:08:37.030Z,59.08
2018-08-06T09:09:37.039Z,58.17
2018-08-06T09:10:37.052Z,60.52
2018-08-06T09:11:37.065Z,60.10
2018-08-06T09:12:37.089Z,60.40
2018-08-06T09:13:37.094Z,59.03
2018-08-06T09:14:37.133Z,58.67
2018-08-06T09:15:37.152Z,58.04
2018-08-06T09:16:37.147Z,59.55
2018-08-06T09:17:37.162Z,58.82
2018-08-06T09:18:37.175Z,56.84
2018-08-06T09:19:37.208Z,55.69
2018-08-06T09:20:37.211Z,56.62
2018-08-06T09:21:37.231Z,58.29
2018-08-06T09:22:37.243Z,58.29
2018-08-06T09:23:37.267Z,53.23
2018-08-06T09:24:37.280Z,54.58
2018-08-06T09:25:37.296Z,53.77
2018-08-06T09:26:37.357Z,55.18
2018-08-06T09:27:37.334Z,54.64
2018-08-06T09:28:37.351Z,54.12
2018-08-06T09:29:37.382Z,54.88
2018-08-06T09:30:37.472Z,55.71
2018-08-06T09:31:37.400Z,54.61
2018-08-06T09:32:37.486Z,54.05
2018-08-06T09:33:37.431Z,55.20
2018-08-06T09:34:37.451Z,53.14
2018-08-06T09:35:37.470Z,53.80
2018-08-06T09:36:37.486Z,55.68
2018-08-06T09:37:37.504Z,55.02
2018-08-06T09:38:37.524Z,55.71
2018-08-06T09:39:37.546Z,56.01
2018-08-06T09:40:37.573Z,56.59
2018-08-06T09:41:37.577Z,54.93
2018-08-06T09:42:37.585Z,53.68
2018-08-06T09:43:37.623Z,52.67
2018-08-06T09:44:37.629Z,55.69
2018-08-06T09:45:37.647Z,55.23
2018-08-06T09:46:37.668Z,54.61
2018-08-06T09:47:37.683Z,53.06
2018-08-06T09:48:37.765Z,54.24
2018-08-06T09:49:37.726Z,56.82
2018-08-06T09:50:37.740Z,55.61
2018-08-06T09:51:37.763Z,55.18
2018-08-06T09:52:37.786Z,54.02
2018-08-06T09:53:37.794Z,53.29
2018-08-06T09:54:37.813Z,52.26
2018-08-06T09:55:37.832Z,50.04
2018-08-06T09:56:37.850Z,51.05
2018-08-06T09:57:37.875Z,53.58
2018-08-06T09:58:37.884Z,51.62
2018-08-06T09:59:37.910Z,50.42
2018-08-06T10:00:37.915Z,49.03
2018-08-06T10:01:37.940Z,50.14
2018-08-06T10:02:37.959Z,51.64
2018-08-06T10:03:37.978Z,51.74
2018-08-06T10:04:38.001Z,53.58
2018-08-06T10:05:38.034Z,52.50
2018-08-06T10:06:38.169Z,55.02
2018-08-06T10:07:38.053Z,54.85
2018-08-06T10:08:38.088Z,54.66
2018-08-06T10:09:38.099Z,55.24
2018-08-06T10:10:38.149Z,52.28
2018-08-06T10:11:38.130Z,51.28
2018-08-06T10:12:38.146Z,49.38
2018-08-06T10:13:38.163Z,50.02
2018-08-06T10:14:38.213Z,48.59
2018-08-06T10:15:38.224Z,49.95
2018-08-06T10:16:38.219Z,49.65
2018-08-06T10:17:38.248Z,49.80
2018-08-06T10:18:38.256Z,51.07
2018-08-06T10:19:38.379Z,48.96
2018-08-06T10:20:38.284Z,47.63
2018-08-06T10:21:38.315Z,48.45
2018-08-06T10:22:38.330Z,49.82
2018-08-06T10:23:38.350Z,49.87
2018-08-06T10:24:38.441Z,47.56
2018-08-06T10:25:38.390Z,46.62
2018-08-06T10:26:38.401Z,45.24
2018-08-06T10:27:38.422Z,45.36
2018-08-06T10:28:38.447Z,46.10
2018-08-06T10:29:38.466Z,48.05
2018-08-06T10:30:38.518Z,48.99
2018-08-06T10:31:38.503Z,48.84
2018-08-06T10:32:38.518Z,47.83
2018-08-06T10:33:38.556Z,47.91
2018-08-06T10:34:38.559Z,45.94
2018-08-06T10:35:38.711Z,45.31
2018-08-06T10:36:38.589Z,46.99
2018-08-06T10:37:38.627Z,46.65
2018-08-06T10:38:38.632Z,44.40
2018-08-06T10:39:38.651Z,46.03
2018-08-06T10:40:38.675Z,45.15
2018-08-06T10:41:38.686Z,47.09
2018-08-06T10:42:38.722Z,48.40
2018-08-06T10:43:38.725Z,47.13
2018-08-06T10:44:38.742Z,46.11
2018-08-06T10:45:38.746Z,45.35
2018-08-06T10:46:38.776Z,46.33
2018-08-06T10:47:38.794Z,45.39
2018-08-06T10:48:38.851Z,44.26
2018-08-06T10:49:38.829Z,44.64
2018-08-06T10:50:38.847Z,47.66
2018-08-06T10:51:38.906Z,47.78
2018-08-06T10:52:38.882Z,45.49
2018-08-06T10:53:38.905Z,45.34
2018-08-06T10:54:38.922Z,43.24
2018-08-06T10:55:38.951Z,43.19
2018-08-06T10:56:38.963Z,43.76
2018-08-06T10:57:38.969Z,44.01
2018-08-06T10:58:38.986Z,42.77
2018-08-06T10:59:39.047Z,44.48
2018-08-06T11:00:39.030Z,44.68
2018-08-06T11:01:39.055Z,44.56
2018-08-06T11:02:39.059Z,45.23
2018-08-06T11:03:39.079Z,45.98
2018-08-06T11:04:39.098Z,42.97
2018-08-06T11:05:39.119Z,41.61
2018-08-06T11:06:39.235Z,42.77
2018-08-06T11:07:39.174Z,43.52
2018-08-06T11:08:39.191Z,43.97
2018-08-06T11:09:39.190Z,43.66
2018-08-06T11:10:39.210Z,43.48
2018-08-06T11:11:39.238Z,44.29
2018-08-06T11:12:39.244Z,43.96
2018-08-06T11:13:39.272Z,43.44
2018-08-06T11:14:39.286Z,43.89
2018-08-06T11:15:39.306Z,44.88
2018-08-06T11:16:39.320Z,44.56
2018-08-06T11:17:39.342Z,44.07
2018-08-06T11:18:39.360Z,43.82
2018-08-06T11:19:39.378Z,41.85
2018-08-06T11:20:39.397Z,43.99
2018-08-06T11:21:39.413Z,44.01
2018-08-06T11:22:39.434Z,44.93
2018-08-06T11:23:39.456Z,44.09
2018-08-06T11:24:39.497Z,43.52
2018-08-06T11:25:39.495Z,42.07
2018-08-06T11:26:39.508Z,43.13
2018-08-06T11:27:39.544Z,44.07
2018-08-06T11:28:39.549Z,44.46
2018-08-06T11:29:39.571Z,42.83
2018-08-06T11:30:39.578Z,43.32
2018-08-06T11:31:39.607Z,44.38
2018-08-06T11:32:39.620Z,42.12
2018-08-06T11:33:39.638Z,42.61
2018-08-06T11:34:39.662Z,42.59
2018-08-06T11:35:39.706Z,43.52
2018-08-06T11:36:39.759Z,42.65
2018-08-06T11:37:39.719Z,43.79
2018-08-06T11:38:39.734Z,42.63
2018-08-06T11:39:39.752Z,41.09
2018-08-06T11:40:39.772Z,40.25
2018-08-06T11:41:39.784Z,39.42
2018-08-06T11:42:39.809Z,39.20
2018-08-06T11:43:39.824Z,38.26
2018-08-06T11:44:39.863Z,40.27
2018-08-06T11:45:39.868Z,39.24
2018-08-06T11:46:39.890Z,40.35
2018-08-06T11:47:39.901Z,40.11
2018-08-06T11:48:39.911Z,41.83
2018-08-06T11:49:39.938Z,41.63
2018-08-06T11:50:39.953Z,41.14
2018-08-06T11:51:39.968Z,40.29
2018-08-06T11:52:39.986Z,39.34
2018-08-06T11:53:40.013Z,40.29
2018-08-06T11:54:40.025Z,41.63
2018-08-06T11:55:40.056Z,39.54
2018-08-06T11:56:40.161Z,41.81
2018-08-06T11:57:40.075Z,39.44
2018-08-06T11:58:40.099Z,41.69
2018-08-06T11:59:40.121Z,43.99
2018-08-06T12:00:40.133Z,42.14
2018-08-06T12:01:40.166Z,42.96
2018-08-06T12:02:40.168Z,44.02
2018-08-06T12:03:40.188Z,44.40
2018-08-06T12:04:40.217Z,44.22
2018-08-06T12:05:40.238Z,43.32
2018-08-06T12:06:40.237Z,43.93
2018-08-06T12:07:40.256Z,44.77
2018-08-06T12:08:40.308Z,44.79
2018-08-06T12:09:40.281Z,43.75
2018-08-06T12:10:40.303Z,42.96
2018-08-06T12:11:40.320Z,43.36
2018-08-06T12:12:40.353Z,42.86
2018-08-06T12:13:40.379Z,43.57
2018-08-06T12:14:40.367Z,42.59
2018-08-06T12:15:40.388Z,42.26
2018-08-06T12:16:40.394Z,41.47
2018-08-06T12:17:40.412Z,41.20
2018-08-06T12:18:40.427Z,41.41
2018-08-06T12:19:40.444Z,40.41
2018-08-06T12:20:40.463Z,40.51
2018-08-06T12:21:40.476Z,39.56
2018-08-06T12:22:40.481Z,41.69
2018-08-06T12:23:40.510Z,39.62
2018-08-06T12:24:40.518Z,40.72
2018-08-06T12:25:40.536Z,39.25
2018-08-06T12:26:40.561Z,38.95
2018-08-06T12:27:40.570Z,39.72
2018-08-06T12:28:40.602Z,40.09
2018-08-06T12:29:40.601Z,40.47
2018-08-06T12:30:40.633Z,41.45
2018-08-06T12:31:40.720Z,42.00
2018-08-06T12:32:40.656Z,42.75
2018-08-06T12:33:40.725Z,42.75
2018-08-06T12:34:40.691Z,43.93
2018-08-06T12:35:40.707Z,44.62
2018-08-06T12:36:40.717Z,43.83
2018-08-06T12:37:40.737Z,43.12
2018-08-06T12:38:40.769Z,45.30
2018-08-06T12:39:40.774Z,43.80
2018-08-06T12:40:40.782Z,43.93
2018-08-06T12:41:40.796Z,42.45
2018-08-06T12:42:40.808Z,44.79
2018-08-06T12:43:40.827Z,44.98
2018-08-06T12:44:40.875Z,44.87
2018-08-06T12:45:40.841Z,45.36
2018-08-06T12:46:40.862Z,45.24
2018-08-06T12:47:40.874Z,46.86
2018-08-06T12:48:40.886Z,48.85
2018-08-06T12:49:40.900Z,48.09
2018-08-06T12:50:40.915Z,50.93
2018-08-06T12:51:40.959Z,47.01
2018-08-06T12:52:40.930Z,48.11
2018-08-06T12:53:40.943Z,48.30
2018-08-06T12:54:40.954Z,49.97
2018-08-06T12:55:40.968Z,47.72
2018-08-06T12:56:41.000Z,47.79
2018-08-06T12:57:41.000Z,48.48
2018-08-06T12:58:41.003Z,49.85
2018-08-06T12:59:41.007Z,49.04
2018-08-06T13:00:41.016Z,49.43
2018-08-06T13:01:41.029Z,48.92
2018-08-06T13:02:41.029Z,49.04
2018-08-06T13:03:41.053Z,48.82
2018-08-06T13:04:41.044Z,49.31
2018-08-06T13:05:41.055Z,50.29
2018-08-06T13:06:41.063Z,50.59
2018-08-06T13:07:41.073Z,50.98
2018-08-06T13:08:41.076Z,49.19
2018-08-06T13:09:41.092Z,50.37
2018-08-06T13:10:41.099Z,50.27
2018-08-06T13:11:41.103Z,50.98
2018-08-06T13:12:41.107Z,50.20
2018-08-06T13:13:41.119Z,50.20
2018-08-06T13:14:41.128Z,49.02
2018-08-06T13:15:41.157Z,49.82
2018-08-06T13:16:41.150Z,49.82
2018-08-06T13:17:41.148Z,48.55
2018-08-06T13:18:41.153Z,47.18
2018-08-06T13:19:41.157Z,48.85
2018-08-06T13:20:41.167Z,48.75
2018-08-06T13:21:41.176Z,49.82
2018-08-06T13:22:41.183Z,48.94
2018-08-06T13:23:41.200Z,47.89
2018-08-06T13:24:41.198Z,48.87
2018-08-06T13:25:41.207Z,47.47
2018-08-06T13:26:41.252Z,48.46
2018-08-06T13:27:41.231Z,49.53
2018-08-06T13:28:41.233Z,49.92
2018-08-06T13:29:41.233Z,48.09
2018-08-06T13:30:41.245Z,47.13
2018-08-06T13:31:41.255Z,46.94
2018-08-06T13:32:41.256Z,47.79
2018-08-06T13:33:41.267Z,47.89
2018-08-06T13:34:41.274Z,48.38
2018-08-06T13:35:41.285Z,49.04
2018-08-06T13:36:41.290Z,48.58
2018-08-06T13:37:41.298Z,49.16
2018-08-06T13:38:41.300Z,47.47
2018-08-06T13:39:41.320Z,48.55
2018-08-06T13:40:41.312Z,47.50
2018-08-06T13:41:41.319Z,48.48
2018-08-06T13:42:41.327Z,48.48
2018-08-06T13:43:41.333Z,47.79
2018-08-06T13:44:41.344Z,48.16
2018-08-06T13:45:41.351Z,49.14
2018-08-06T13:46:41.377Z,48.55
2018-08-06T13:47:41.363Z,48.55
2018-08-06T13:48:41.394Z,49.51
2018-08-06T13:49:41.381Z,50.10
2018-08-06T13:50:41.386Z,49.41
2018-08-06T13:51:41.398Z,48.72
2018-08-06T13:52:41.400Z,48.92
2018-08-06T13:53:41.410Z,48.43
2018-08-06T13:54:41.425Z,48.99
2018-08-06T13:55:41.416Z,48.80
2018-08-06T13:56:41.428Z,48.60
2018-08-06T13:57:41.437Z,49.48
2018-08-06T13:58:41.458Z,49.29
2018-08-06T13:59:41.445Z,48.99
2018-08-06T14:00:41.457Z,48.70
2018-08-06T14:01:41.464Z,49.19
2018-08-06T14:02:41.468Z,50.07
2018-08-06T14:03:41.469Z,50.27
2018-08-06T14:04:41.477Z,49.87
2018-08-06T14:05:41.489Z,50.46
2018-08-06T14:06:41.501Z,48.70
2018-08-06T14:07:41.494Z,48.70
2018-08-06T14:08:41.503Z,47.53
2018-08-06T14:09:41.524Z,48.99
2018-08-06T14:10:41.514Z,48.90
2018-08-06T14:11:41.533Z,47.94
2018-08-06T14:12:41.540Z,48.43
2018-08-06T14:13:41.537Z,48.55
2018-08-06T14:14:41.545Z,47.18
2018-08-06T14:15:41.549Z,47.38
2018-08-06T14:16:41.580Z,48.36
2018-08-06T14:17:41.563Z,47.87
2018-08-06T14:18:41.590Z,47.26
2018-08-06T14:19:41.572Z,47.55